Time;durP1;ratioP1;P1;durP2;ratioP2;P2;SDS_P1;SDS_P2;PMS_P1;PMS_P2;Temp;Humidity;BMP_temperature;BMP_pressure;BME280_temperature;BME280_humidity;BME280_pressure;Samples;Min_cycle;Max_cycle;Signal;HPM_P1;HPM_P2
2023/10/01 00:01:48;;;;;;;14.70;6.27;;;6.70;99.90;;;;;;4454347;28;655889;-68
2023/10/01 00:04:36;;;;;;;17.13;5.83;;;6.60;99.90;;;;;;4457468;28;656572;-67
2023/10/01 00:07:24;;;;;;;15.50;6.30;;;6.60;99.90;;;;;;4421727;28;655870;-67
2023/10/01 00:10:13;;;;;;;14.07;6.00;;;6.60;99.90;;;;;;4423190;28;655565;-67
2023/10/01 00:13:01;;;;;;;14.70;5.50;;;6.70;99.90;;;;;;4410171;28;656140;-68
2023/10/01 00:15:49;;;;;;;16.90;6.07;;;6.70;99.90;;;;;;4406380;28;655625;-67
2023/10/01 00:18:36;;;;;;;13.97;5.83;;;6.60;99.90;;;;;;4426441;28;655421;-68
2023/10/01 00:21:24;;;;;;;24.17;6.23;;;6.60;99.90;;;;;;4417315;28;655578;-68
2023/10/01 00:24:12;;;;;;;23.30;6.27;;;6.60;99.90;;;;;;4442757;28;656543;-68
2023/10/01 00:27:01;;;;;;;14.40;6.43;;;6.60;99.90;;;;;;4423405;28;656193;-67
2023/10/01 00:29:49;;;;;;;16.53;5.80;;;6.60;99.90;;;;;;4406746;28;655795;-67
2023/10/01 00:32:36;;;;;;;16.60;5.83;;;6.50;99.90;;;;;;4433723;28;656124;-67
2023/10/01 00:35:25;;;;;;;15.20;6.47;;;6.60;99.90;;;;;;4420881;28;655364;-68
2023/10/01 00:38:13;;;;;;;12.13;5.85;;;6.50;99.90;;;;;;4422133;28;655441;-68
2023/10/01 00:41:03;;;;;;;16.97;5.83;;;6.50;99.90;;;;;;4441318;28;657757;-67
2023/10/01 00:43:51;;;;;;;9.87;6.07;;;6.60;99.90;;;;;;4414600;28;655504;-67
2023/10/01 00:46:38;;;;;;;15.88;5.65;;;6.50;99.90;;;;;;4408960;28;654473;-68
2023/10/01 00:49:26;;;;;;;15.20;5.70;;;6.50;99.90;;;;;;4415507;28;656008;-67
2023/10/01 00:52:13;;;;;;;18.73;6.07;;;6.50;99.90;;;;;;4414658;28;656034;-67
2023/10/01 00:55:00;;;;;;;11.87;5.90;;;6.50;99.90;;;;;;4427530;28;656785;-67
2023/10/01 00:57:49;;;;;;;16.37;5.67;;;6.50;99.90;;;;;;4412558;28;655853;-67
2023/10/01 01:00:37;;;;;;;13.97;5.33;;;6.50;99.90;;;;;;4441588;28;655531;-67
2023/10/01 01:03:25;;;;;;;12.70;6.00;;;6.50;99.90;;;;;;4417833;28;655612;-67
2023/10/01 01:06:17;;;;;;;18.00;6.23;;;6.50;99.90;;;;;;4423103;28;655285;-68
2023/10/01 01:09:10;;;;;;;22.27;6.13;;;6.50;99.90;;;;;;4418037;28;657161;-67
2023/10/01 01:11:57;;;;;;;20.93;7.80;;;6.50;99.90;;;;;;4398600;28;656938;-67
2023/10/01 01:14:48;;;;;;;20.83;7.67;;;6.50;99.90;;;;;;4443192;28;655529;-68
2023/10/01 01:17:36;;;;;;;22.30;7.63;;;6.50;99.90;;;;;;4411640;28;656368;-67
2023/10/01 01:20:23;;;;;;;22.10;7.40;;;6.50;99.90;;;;;;4401486;28;655321;-68
2023/10/01 01:23:15;;;;;;;16.30;7.83;;;6.50;99.90;;;;;;4440904;28;657316;-67
2023/10/01 01:26:02;;;;;;;19.07;8.00;;;6.50;99.90;;;;;;4396262;28;656247;-67
2023/10/01 01:28:50;;;;;;;17.90;7.53;;;6.40;99.90;;;;;;4439434;28;656300;-67
2023/10/01 01:31:45;;;;;;;15.23;8.00;;;6.40;99.90;;;;;;4422339;28;655766;-67
2023/10/01 01:34:34;;;;;;;19.40;8.53;;;6.40;99.90;;;;;;4402818;28;655912;-68
2023/10/01 01:37:30;;;;;;;17.87;7.90;;;6.40;99.90;;;;;;4442284;28;655423;-67
2023/10/01 01:40:26;;;;;;;18.90;8.13;;;6.40;99.90;;;;;;4402854;28;657615;-67
2023/10/01 01:43:21;;;;;;;23.77;8.77;;;6.40;99.90;;;;;;4402869;28;655727;-67
2023/10/01 01:46:11;;;;;;;21.37;8.93;;;6.50;99.90;;;;;;4426352;28;655243;-67
2023/10/01 01:48:59;;;;;;;19.87;9.20;;;6.50;99.90;;;;;;4421464;28;655809;-67
2023/10/01 01:51:56;;;;;;;24.30;9.43;;;6.40;99.90;;;;;;4439558;28;656583;-67
2023/10/01 01:54:45;;;;;;;27.83;9.53;;;6.40;99.90;;;;;;4396865;28;656006;-67
2023/10/01 01:57:34;;;;;;;18.95;9.07;;;6.40;99.90;;;;;;4420060;28;656053;-68
2023/10/01 02:00:21;;;;;;;19.33;8.57;;;6.40;99.90;;;;;;4439771;28;655192;-67
2023/10/01 02:03:14;;;;;;;24.95;8.52;;;6.40;99.90;;;;;;4426554;28;655661;-67
2023/10/01 02:06:02;;;;;;;20.83;8.43;;;6.40;99.90;;;;;;4383725;28;656571;-67
2023/10/01 02:08:49;;;;;;;28.17;9.40;;;6.40;99.90;;;;;;4404863;28;656506;-68
2023/10/01 02:11:37;;;;;;;70.23;9.00;;;6.40;99.90;;;;;;4424731;28;655565;-67
2023/10/01 02:14:35;;;;;;;16.70;9.13;;;6.50;99.90;;;;;;4417123;28;656433;-67
2023/10/01 02:17:25;;;;;;;22.80;9.57;;;6.40;99.90;;;;;;4436688;28;655407;-67
2023/10/01 02:20:27;;;;;;;28.27;10.20;;;6.40;99.90;;;;;;4410606;28;655263;-68
2023/10/01 02:23:17;;;;;;;19.80;9.83;;;6.50;99.90;;;;;;4396179;28;656517;-67
2023/10/01 02:26:06;;;;;;;17.37;9.00;;;6.50;99.90;;;;;;4403917;28;656024;-67
2023/10/01 02:28:53;;;;;;;18.67;8.97;;;6.50;99.90;;;;;;4413654;28;655852;-68
2023/10/01 02:31:47;;;;;;;22.27;9.73;;;6.50;99.90;;;;;;4430289;28;657637;-67
2023/10/01 02:34:36;;;;;;;24.63;10.00;;;6.50;99.90;;;;;;4386986;28;655770;-67
2023/10/01 02:37:29;;;;;;;21.08;10.18;;;6.50;99.90;;;;;;4422916;28;656587;-67
2023/10/01 02:40:18;;;;;;;23.33;10.10;;;6.50;99.90;;;;;;4417985;28;656751;-67
2023/10/01 02:43:12;;;;;;;21.63;10.23;;;6.50;99.90;;;;;;4399196;27;657488;-68
2023/10/01 02:46:03;;;;;;;20.53;9.10;;;6.50;99.90;;;;;;4386314;28;656784;-67
2023/10/01 02:48:50;;;;;;;23.03;9.60;;;6.50;99.90;;;;;;4412079;28;656049;-67
2023/10/01 02:51:38;;;;;;;24.33;9.77;;;6.50;99.90;;;;;;4422091;28;656056;-67
2023/10/01 02:54:26;;;;;;;22.90;9.47;;;6.50;99.90;;;;;;4434680;28;656812;-67
2023/10/01 02:57:13;;;;;;;21.83;9.13;;;6.50;99.90;;;;;;4422437;28;656183;-68
2023/10/01 03:03:14;;;;;;;21.43;10.57;;;6.60;99.90;;;;;;4414821;28;655616;-67
2023/10/01 03:06:08;;;;;;;26.17;10.97;;;6.70;99.90;;;;;;4420754;28;657125;-67
2023/10/01 03:09:09;;;;;;;25.30;10.77;;;6.70;99.90;;;;;;4434082;27;656563;-67
2023/10/01 03:12:24;;;;;;;28.47;12.17;;;6.70;99.90;;;;;;4426147;28;656709;-67
2023/10/01 03:15:23;;;;;;;35.20;12.90;;;6.70;99.90;;;;;;4431633;28;656551;-67
2023/10/01 03:18:34;;;;;;;28.97;12.23;;;6.80;99.90;;;;;;4429223;28;657379;-67
2023/10/01 03:22:14;;;;;;;25.27;11.70;;;6.80;99.90;;;;;;4432390;28;656885;-67
2023/10/01 03:24:46;;;;;;;29.37;11.73;;;6.80;99.90;;;;;;4438064;27;657839;-68
2023/10/01 03:27:38;;;;;;;38.10;15.00;;;6.90;99.90;;;;;;4429807;28;660485;-67
2023/10/01 03:30:32;;;;;;;52.73;17.43;;;7.00;99.90;;;;;;4435423;28;657248;-67
2023/10/01 03:33:20;;;;;;;89.43;22.17;;;7.20;99.90;;;;;;4415688;28;656860;-67
2023/10/01 03:36:10;;;;;;;155.57;21.83;;;7.70;99.90;;;;;;4441411;27;656432;-67
2023/10/01 03:39:23;;;;;;;219.07;23.60;;;7.90;99.90;;;;;;4433249;28;657933;-68
2023/10/01 03:42:17;;;;;;;146.73;20.63;;;8.10;99.90;;;;;;4428927;28;657512;-67
2023/10/01 03:45:37;;;;;;;183.53;21.87;;;8.30;99.90;;;;;;4407395;28;657549;-67
2023/10/01 03:48:25;;;;;;;114.50;20.00;;;8.40;99.90;;;;;;4407299;28;658642;-67
2023/10/01 03:51:12;;;;;;;74.17;20.83;;;8.50;99.90;;;;;;4439503;28;657546;-67
2023/10/01 03:54:06;;;;;;;53.80;18.90;;;8.50;99.90;;;;;;4458650;28;656329;-67
2023/10/01 03:56:57;;;;;;;52.87;19.57;;;8.60;99.90;;;;;;4438901;28;656510;-67
2023/10/01 03:59:51;;;;;;;47.40;18.53;;;8.60;99.90;;;;;;4431322;28;656579;-67
2023/10/01 04:02:46;;;;;;;43.87;18.10;;;8.60;99.90;;;;;;4414252;28;656640;-67
2023/10/01 04:05:34;;;;;;;39.47;17.63;;;8.50;99.90;;;;;;4429215;28;656296;-67
2023/10/01 04:08:22;;;;;;;48.73;19.07;;;8.50;99.90;;;;;;4440900;28;656438;-67
2023/10/01 04:11:11;;;;;;;48.17;18.83;;;8.40;99.90;;;;;;4439905;28;657516;-67
2023/10/01 04:14:09;;;;;;;60.37;19.37;;;8.50;99.90;;;;;;4434103;28;657428;-67
2023/10/01 04:16:57;;;;;;;46.83;18.63;;;8.70;99.90;;;;;;4433641;28;657259;-67
2023/10/01 04:19:48;;;;;;;84.70;18.73;;;8.70;99.90;;;;;;4424727;28;657998;-67
2023/10/01 04:22:36;;;;;;;58.13;18.77;;;8.80;99.90;;;;;;4435172;28;658376;-67
2023/10/01 04:25:24;;;;;;;57.23;19.73;;;8.70;99.90;;;;;;4429066;28;656677;-67
2023/10/01 04:28:13;;;;;;;55.83;18.13;;;8.80;99.90;;;;;;4455835;28;656739;-67
2023/10/01 04:31:03;;;;;;;49.17;17.97;;;8.90;99.90;;;;;;4431792;28;658956;-68
2023/10/01 04:33:52;;;;;;;45.53;17.70;;;8.80;99.90;;;;;;4429298;28;657572;-67
2023/10/01 04:36:39;;;;;;;53.27;18.63;;;8.90;99.90;;;;;;4425379;28;656967;-68
2023/10/01 04:39:26;;;;;;;53.93;19.73;;;8.90;99.90;;;;;;4442373;28;657418;-67
2023/10/01 04:42:16;;;;;;;58.17;20.50;;;8.90;99.90;;;;;;4423787;28;656422;-67
2023/10/01 04:45:22;;;;;;;53.67;19.77;;;8.90;99.90;;;;;;4426409;28;656765;-67
2023/10/01 04:48:15;;;;;;;50.50;20.63;;;8.90;99.90;;;;;;4405307;28;656839;-67
2023/10/01 04:51:07;;;;;;;51.97;21.27;;;8.90;99.90;;;;;;4435313;28;657929;-67
2023/10/01 04:54:00;;;;;;;58.60;21.93;;;8.90;99.90;;;;;;4432480;28;657381;-67
2023/10/01 04:56:48;;;;;;;52.83;21.33;;;8.90;99.90;;;;;;4453103;28;656309;-68
2023/10/01 04:59:51;;;;;;;51.60;20.17;;;8.90;99.90;;;;;;4450298;28;657792;-67
2023/10/01 05:02:43;;;;;;;44.90;19.57;;;8.90;99.90;;;;;;4434879;28;657247;-67
2023/10/01 05:05:30;;;;;;;46.30;20.07;;;9.00;99.90;;;;;;4435892;28;657448;-67
2023/10/01 05:08:17;;;;;;;44.63;19.20;;;9.00;99.90;;;;;;4452649;28;656732;-67
2023/10/01 05:11:10;;;;;;;56.80;19.30;;;9.00;99.90;;;;;;4448666;28;656302;-67
2023/10/01 05:13:58;;;;;;;43.63;18.87;;;9.00;99.90;;;;;;4421641;28;656290;-68
2023/10/01 05:16:45;;;;;;;47.10;19.23;;;9.00;99.90;;;;;;4453894;28;657620;-67
2023/10/01 05:19:37;;;;;;;41.37;18.93;;;9.00;99.90;;;;;;4444301;27;656863;-68
2023/10/01 05:22:25;;;;;;;49.03;19.90;;;9.00;99.90;;;;;;4436011;27;657298;-68
2023/10/01 05:25:13;;;;;;;55.78;19.13;;;8.90;99.90;;;;;;4442596;28;656932;-67
2023/10/01 05:28:03;;;;;;;42.77;18.53;;;9.00;99.90;;;;;;4443410;28;657769;-67
2023/10/01 05:30:57;;;;;;;44.20;18.73;;;9.10;99.90;;;;;;4435712;27;657775;-68
2023/10/01 05:33:46;;;;;;;47.90;18.77;;;9.10;99.90;;;;;;4421578;28;657071;-68
2023/10/01 05:36:35;;;;;;;44.33;18.73;;;9.00;99.90;;;;;;4432901;27;656849;-68
2023/10/01 05:39:23;;;;;;;44.67;18.50;;;9.00;99.90;;;;;;4439089;28;657171;-67
2023/10/01 05:42:14;;;;;;;51.13;19.70;;;9.00;99.90;;;;;;4455849;27;657247;-68
2023/10/01 05:45:04;;;;;;;56.43;19.60;;;9.10;99.90;;;;;;4416506;28;656708;-67
2023/10/01 05:47:54;;;;;;;51.87;18.67;;;9.10;99.90;;;;;;4417058;28;656790;-67
2023/10/01 05:50:42;;;;;;;46.33;18.27;;;9.30;99.90;;;;;;4424013;28;656559;-67
2023/10/01 05:53:31;;;;;;;47.93;18.40;;;9.20;99.90;;;;;;4437417;28;657697;-67
2023/10/01 05:56:19;;;;;;;53.03;20.10;;;9.20;99.90;;;;;;4436133;28;656832;-67
2023/10/01 05:59:06;;;;;;;47.43;18.80;;;9.20;99.90;;;;;;4455373;28;657697;-67
2023/10/01 06:01:54;;;;;;;44.27;18.83;;;9.20;99.90;;;;;;4428203;28;657059;-68
2023/10/01 06:04:41;;;;;;;45.17;18.00;;;9.30;99.90;;;;;;4448243;28;657139;-67
2023/10/01 06:07:28;;;;;;;42.10;16.90;;;9.40;99.90;;;;;;4437650;28;657494;-67
2023/10/01 06:10:19;;;;;;;36.35;16.33;;;9.50;99.90;;;;;;4459346;28;657714;-67
2023/10/01 06:13:06;;;;;;;39.17;16.97;;;9.50;99.90;;;;;;4434177;28;657445;-67
2023/10/01 06:15:56;;;;;;;36.50;15.77;;;9.60;99.90;;;;;;4415597;28;656987;-67
2023/10/01 06:18:49;;;;;;;44.53;16.20;;;9.60;99.90;;;;;;4443359;28;657098;-67
2023/10/01 06:21:39;;;;;;;35.33;14.67;;;9.60;99.90;;;;;;4420344;28;656864;-67
2023/10/01 06:24:27;;;;;;;35.53;14.80;;;9.60;99.90;;;;;;4435560;28;656790;-67
2023/10/01 06:27:18;;;;;;;34.70;14.10;;;9.40;99.90;;;;;;4439081;27;657181;-67
2023/10/01 06:30:07;;;;;;;30.13;14.23;;;9.50;99.90;;;;;;4428076;28;657237;-67
2023/10/01 06:32:56;;;;;;;34.20;14.50;;;9.50;99.90;;;;;;4428680;28;657920;-67
2023/10/01 06:36:15;;;;;;;35.53;14.73;;;9.50;99.90;;;;;;4425555;28;658143;-67
2023/10/01 06:38:53;;;;;;;35.40;14.00;;;9.60;99.90;;;;;;4427070;28;657305;-66
2023/10/01 06:41:41;;;;;;;32.87;14.27;;;9.70;99.90;;;;;;4426558;28;657447;-67
2023/10/01 06:44:30;;;;;;;32.67;12.83;;;9.70;99.90;;;;;;4433527;28;656530;-67
2023/10/01 06:47:18;;;;;;;41.20;14.25;;;9.80;99.90;;;;;;4435783;28;659423;-67
2023/10/01 06:50:14;;;;;;;34.40;13.50;;;9.80;99.90;;;;;;4454840;27;656460;-67
2023/10/01 06:53:03;;;;;;;33.33;14.03;;;10.00;99.90;;;;;;4429994;28;656632;-67
2023/10/01 06:55:52;;;;;;;34.55;14.27;;;10.00;99.90;;;;;;4427383;27;658145;-67
2023/10/01 06:58:40;;;;;;;30.13;13.30;;;10.10;99.90;;;;;;4428677;28;659027;-67
2023/10/01 07:01:46;;;;;;;35.57;12.97;;;10.30;99.90;;;;;;4459170;28;656742;-67
2023/10/01 07:04:34;;;;;;;33.30;15.20;;;10.20;99.90;;;;;;4402302;28;658255;-67
2023/10/01 07:07:21;;;;;;;34.10;13.70;;;10.30;99.90;;;;;;4445205;28;658332;-66
2023/10/01 07:10:10;;;;;;;33.63;13.27;;;10.50;99.90;;;;;;4432038;28;657524;-67
2023/10/01 07:13:04;;;;;;;33.90;13.00;;;10.60;99.90;;;;;;4443437;28;657419;-67
2023/10/01 07:15:52;;;;;;;27.53;11.70;;;10.60;99.90;;;;;;4432474;28;657800;-66
2023/10/01 07:18:43;;;;;;;28.30;12.47;;;10.60;99.90;;;;;;4433883;28;659060;-67
2023/10/01 07:21:31;;;;;;;36.20;13.50;;;10.40;99.90;;;;;;4434534;28;658866;-67
2023/10/01 07:24:20;;;;;;;25.97;11.47;;;10.50;99.90;;;;;;4413182;28;657539;-66
2023/10/01 07:27:11;;;;;;;31.88;11.45;;;10.40;99.90;;;;;;4435878;28;657869;-67
2023/10/01 07:30:00;;;;;;;15.80;7.43;;;10.40;99.90;;;;;;4434570;28;657715;-67
2023/10/01 07:32:48;;;;;;;25.30;10.93;;;10.40;99.90;;;;;;4437562;28;657053;-67
2023/10/01 07:35:41;;;;;;;30.90;12.33;;;10.40;99.90;;;;;;4459281;28;658043;-67
2023/10/01 07:38:30;;;;;;;24.90;10.93;;;10.50;99.90;;;;;;4407249;28;658178;-67
2023/10/01 07:41:18;;;;;;;25.63;10.48;;;10.60;99.90;;;;;;4415008;28;657597;-67
2023/10/01 07:44:08;;;;;;;25.23;10.57;;;10.60;99.90;;;;;;4450370;28;658635;-67
2023/10/01 07:46:55;;;;;;;38.10;12.70;;;10.40;99.90;;;;;;4421998;28;658044;-67
2023/10/01 07:49:47;;;;;;;34.00;12.93;;;10.60;99.90;;;;;;4436063;28;658013;-68
2023/10/01 07:52:36;;;;;;;26.70;11.07;;;10.50;99.90;;;;;;4437556;27;657824;-67
2023/10/01 07:55:35;;;;;;;27.80;10.25;;;10.80;99.90;;;;;;4430101;28;657790;-67
2023/10/01 07:58:44;;;;;;;28.83;12.67;;;10.90;99.90;;;;;;4421779;28;657936;-67
2023/10/01 08:01:42;;;;;;;28.60;12.37;;;10.90;99.90;;;;;;4433142;28;657769;-67
2023/10/01 08:07:42;;;;;;;26.67;12.20;;;11.10;99.90;;;;;;4432303;28;657369;-67
2023/10/01 08:10:29;;;;;;;35.13;12.43;;;11.20;99.90;;;;;;4408703;28;657982;-66
2023/10/01 08:13:24;;;;;;;24.17;11.65;;;11.30;99.90;;;;;;4448475;28;658136;-67
2023/10/01 08:16:13;;;;;;;23.80;11.60;;;11.30;99.90;;;;;;4420868;28;658327;-67
2023/10/01 08:18:59;;;;;;;23.80;11.97;;;11.30;99.90;;;;;;4418087;28;657888;-67
2023/10/01 08:21:50;;;;;;;33.38;11.70;;;11.50;99.90;;;;;;4455362;28;658175;-67
2023/10/01 08:24:39;;;;;;;25.90;11.23;;;11.60;99.90;;;;;;4424555;28;657993;-67
2023/10/01 08:30:38;;;;;;;24.97;11.10;;;11.80;99.90;;;;;;4422802;28;658444;-68
2023/10/01 08:33:32;;;;;;;24.83;10.97;;;11.80;99.90;;;;;;4426267;28;658436;-67
2023/10/01 08:36:24;;;;;;;30.87;10.93;;;11.70;99.90;;;;;;4414196;28;657793;-68
2023/10/01 08:39:33;;;;;;;21.37;11.37;;;11.80;99.90;;;;;;4430127;28;657837;-67
2023/10/01 08:42:28;;;;;;;28.00;11.87;;;11.90;99.90;;;;;;4418439;28;657766;-67
2023/10/01 08:45:17;;;;;;;29.13;10.40;;;12.30;99.90;;;;;;4425624;28;657629;-68
2023/10/01 08:48:05;;;;;;;17.10;7.77;;;12.50;99.90;;;;;;4434404;28;660586;-67
2023/10/01 08:50:52;;;;;;;24.63;7.47;;;12.90;99.90;;;;;;4432121;28;656570;-67
2023/10/01 08:53:41;;;;;;;18.23;6.93;;;12.80;99.90;;;;;;4456686;28;656346;-67
2023/10/01 08:56:33;;;;;;;23.07;6.33;;;12.60;99.90;;;;;;4436479;27;656707;-67
2023/10/01 08:59:25;;;;;;;19.60;6.30;;;12.70;99.90;;;;;;4436897;28;657694;-67
2023/10/01 09:02:19;;;;;;;18.40;6.17;;;12.90;99.90;;;;;;4394464;28;656322;-67
2023/10/01 09:05:09;;;;;;;17.27;6.37;;;12.90;99.90;;;;;;4423267;28;656590;-67
2023/10/01 09:10:59;;;;;;;21.10;6.03;;;13.00;99.90;;;;;;4402273;28;656951;-68
2023/10/01 09:13:47;;;;;;;20.17;5.70;;;12.80;99.90;;;;;;4454726;28;656364;-67
2023/10/01 09:16:42;;;;;;;16.83;5.20;;;12.70;99.90;;;;;;4429108;28;657179;-67
2023/10/01 09:19:34;;;;;;;17.67;4.88;;;12.80;99.90;;;;;;4427500;28;656491;-67
2023/10/01 09:22:40;;;;;;;4.43;1.97;;;13.00;99.90;;;;;;4432167;28;659119;-67
2023/10/01 09:25:30;;;;;;;23.13;5.20;;;13.10;99.90;;;;;;4437841;28;655826;-68
2023/10/01 09:28:29;;;;;;;18.50;5.23;;;13.00;99.90;;;;;;4447644;28;656448;-68
2023/10/01 09:31:26;;;;;;;15.60;5.27;;;13.20;99.90;;;;;;4428657;28;656563;-67
2023/10/01 09:34:31;;;;;;;14.20;5.30;;;13.40;99.90;;;;;;4413894;28;657857;-67
2023/10/01 09:37:33;;;;;;;17.87;5.60;;;13.70;99.90;;;;;;4404918;28;656672;-67
2023/10/01 09:40:33;;;;;;;16.40;5.40;;;14.00;99.90;;;;;;4419340;28;656537;-67
2023/10/01 09:43:24;;;;;;;18.10;6.00;;;14.00;99.90;;;;;;4424993;28;656968;-67
2023/10/01 09:46:11;;;;;;;9.93;4.17;;;13.80;99.90;;;;;;4440913;28;656427;-66
2023/10/01 09:49:00;;;;;;;12.77;4.70;;;13.70;99.90;;;;;;4436840;28;655769;-67
2023/10/01 09:51:52;;;;;;;19.40;5.07;;;13.30;99.90;;;;;;4439807;28;657084;-68
2023/10/01 09:54:43;;;;;;;13.17;4.97;;;13.70;99.90;;;;;;4435015;28;657552;-67
2023/10/01 09:57:34;;;;;;;12.90;4.73;;;13.90;99.90;;;;;;4432754;28;657158;-66
2023/10/01 10:00:22;;;;;;;15.93;4.97;;;13.70;99.90;;;;;;4435623;28;657427;-66
2023/10/01 10:03:11;;;;;;;13.43;4.67;;;13.80;99.90;;;;;;4444636;27;656864;-67
2023/10/01 10:05:58;;;;;;;11.57;4.40;;;13.70;99.90;;;;;;4434113;28;656358;-67
2023/10/01 10:08:51;;;;;;;17.30;5.20;;;13.90;99.90;;;;;;4441558;28;657381;-67
2023/10/01 10:11:40;;;;;;;10.07;4.47;;;14.10;99.90;;;;;;4398177;27;657018;-66
2023/10/01 10:14:45;;;;;;;16.17;4.67;;;14.30;99.90;;;;;;4424549;27;657320;-68
2023/10/01 10:17:57;;;;;;;15.03;4.77;;;14.70;99.90;;;;;;4437547;28;656268;-67
2023/10/01 10:20:58;;;;;;;12.47;4.27;;;14.90;99.90;;;;;;4409457;28;657159;-67
2023/10/01 10:23:54;;;;;;;17.03;4.60;;;14.30;99.90;;;;;;4414881;28;656967;-67
2023/10/01 10:26:56;;;;;;;12.63;3.63;;;14.60;99.90;;;;;;4413554;28;656629;-67
2023/10/01 10:30:15;;;;;;;13.70;4.43;;;14.70;99.90;;;;;;4394570;28;657177;-67
2023/10/01 10:33:41;;;;;;;14.60;4.40;;;14.40;99.90;;;;;;4409904;28;657548;-67
2023/10/01 10:36:49;;;;;;;10.57;3.27;;;14.60;99.90;;;;;;4408318;28;656656;-67
2023/10/01 10:40:12;;;;;;;17.73;5.00;;;14.60;99.90;;;;;;4432668;28;656957;-67
2023/10/01 10:43:21;;;;;;;13.57;4.17;;;14.60;99.90;;;;;;4409020;28;656933;-67
2023/10/01 10:46:09;;;;;;;18.90;4.50;;;14.80;99.90;;;;;;4414259;28;656891;-66
2023/10/01 10:49:02;;;;;;;12.47;4.07;;;15.20;99.90;;;;;;4454272;28;656501;-67
2023/10/01 10:51:49;;;;;;;11.87;4.17;;;15.10;99.90;;;;;;4433949;28;657068;-67
2023/10/01 10:54:37;;;;;;;10.83;3.73;;;15.20;99.90;;;;;;4459939;27;656180;-67
2023/10/01 10:57:28;;;;;;;16.40;3.97;;;15.70;99.90;;;;;;4433632;28;657533;-67
2023/10/01 11:00:25;;;;;;;7.23;2.67;;;15.90;99.90;;;;;;4428896;28;656736;-66
2023/10/01 11:03:12;;;;;;;12.97;3.50;;;15.60;99.90;;;;;;4414490;28;656363;-67
2023/10/01 11:06:16;;;;;;;16.47;3.50;;;15.50;99.90;;;;;;4412036;28;656803;-66
2023/10/01 11:09:22;;;;;;;13.57;3.03;;;15.60;99.90;;;;;;4371811;28;657772;-67
2023/10/01 11:12:21;;;;;;;15.10;3.70;;;16.00;99.90;;;;;;4362655;28;656785;-67
2023/10/01 11:15:24;;;;;;;11.67;2.73;;;15.90;99.90;;;;;;4397728;28;656195;-67
2023/10/01 11:18:11;;;;;;;11.70;3.50;;;16.10;99.90;;;;;;4391755;28;656882;-66
2023/10/01 11:21:02;;;;;;;8.70;3.25;;;16.50;99.90;;;;;;4393018;28;656815;-67
2023/10/01 11:23:53;;;;;;;12.73;3.00;;;16.50;99.90;;;;;;4393673;28;655585;-67
2023/10/01 11:27:40;;;;;;;12.90;3.40;;;16.20;99.90;;;;;;4376396;28;657059;-66
2023/10/01 11:30:34;;;;;;;16.37;3.43;;;16.10;99.90;;;;;;4359292;28;656426;-68
2023/10/01 11:33:29;;;;;;;12.87;3.23;;;16.60;99.90;;;;;;4387208;28;657161;-66
2023/10/01 11:36:21;;;;;;;8.87;2.87;;;16.80;99.90;;;;;;4405650;28;656446;-67
2023/10/01 11:39:16;;;;;;;11.37;3.07;;;16.50;99.90;;;;;;4374768;28;655760;-67
2023/10/01 11:42:13;;;;;;;13.70;3.13;;;16.20;99.90;;;;;;4374657;28;657382;-67
2023/10/01 11:45:28;;;;;;;7.27;2.87;;;16.00;99.90;;;;;;4365412;28;656536;-68
2023/10/01 11:48:20;;;;;;;9.40;2.33;;;16.50;99.90;;;;;;4382950;28;655608;-66
2023/10/01 11:51:08;;;;;;;8.73;2.70;;;16.30;99.90;;;;;;4358785;28;655711;-68
2023/10/01 11:53:56;;;;;;;11.63;3.70;;;15.80;99.90;;;;;;4411292;28;655582;-66
2023/10/01 11:56:45;;;;;;;13.63;3.30;;;16.00;99.90;;;;;;4390303;28;657150;-67
2023/10/01 11:59:33;;;;;;;10.80;3.40;;;16.00;99.90;;;;;;4400894;28;657092;-68
2023/10/01 12:02:21;;;;;;;11.33;2.60;;;16.40;99.90;;;;;;4415754;28;657585;-66
2023/10/01 12:05:13;;;;;;;15.70;4.13;;;16.50;99.90;;;;;;4398356;28;656496;-67
2023/10/01 12:08:00;;;;;;;9.47;3.10;;;16.40;99.90;;;;;;4389437;28;657623;-66
2023/10/01 12:10:51;;;;;;;6.77;2.10;;;16.80;99.90;;;;;;4413680;28;655647;-68
2023/10/01 12:13:38;;;;;;;11.23;3.73;;;16.60;99.90;;;;;;4406293;28;655592;-67
2023/10/01 12:16:29;;;;;;;9.80;3.30;;;16.20;99.90;;;;;;4418004;28;658487;-67
2023/10/01 12:19:24;;;;;;;13.63;3.37;;;16.20;99.90;;;;;;4403344;28;655272;-66
2023/10/01 12:22:12;;;;;;;13.87;3.60;;;16.10;99.90;;;;;;4390347;28;656933;-67
2023/10/01 12:25:00;;;;;;;12.10;3.20;;;16.30;99.90;;;;;;4397301;28;657105;-67
2023/10/01 12:27:48;;;;;;;12.60;3.43;;;16.40;99.90;;;;;;4394298;28;656401;-67
2023/10/01 12:30:35;;;;;;;9.83;3.07;;;16.50;99.90;;;;;;4413868;28;657039;-67
2023/10/01 12:33:22;;;;;;;12.83;3.47;;;16.50;99.90;;;;;;4406599;28;655514;-68
2023/10/01 12:36:31;;;;;;;13.60;3.63;;;16.50;99.90;;;;;;4417857;28;657761;-66
2023/10/01 12:39:27;;;;;;;11.87;3.20;;;16.50;99.90;;;;;;4370007;28;656617;-67
2023/10/01 12:42:14;;;;;;;14.73;3.37;;;16.40;99.90;;;;;;4399765;28;656586;-67
2023/10/01 12:45:13;;;;;;;13.80;3.87;;;16.50;99.90;;;;;;4410963;28;656062;-66
2023/10/01 12:48:08;;;;;;;9.27;3.47;;;16.10;99.90;;;;;;4397281;28;656604;-67
2023/10/01 12:51:00;;;;;;;16.13;3.33;;;16.00;99.90;;;;;;4382656;28;655668;-66
2023/10/01 12:53:48;;;;;;;16.17;4.10;;;16.00;99.90;;;;;;4413314;28;656572;-68
2023/10/01 12:56:48;;;;;;;10.37;3.20;;;15.90;99.90;;;;;;4417350;28;657142;-67
2023/10/01 12:59:39;;;;;;;9.57;2.87;;;16.10;99.90;;;;;;4389031;28;656851;-67
2023/10/01 13:02:42;;;;;;;13.83;3.10;;;16.50;99.90;;;;;;4383688;28;656054;-66
2023/10/01 13:05:43;;;;;;;16.50;3.40;;;16.00;99.90;;;;;;4402595;28;656082;-67
2023/10/01 13:08:30;;;;;;;13.07;3.37;;;16.40;99.90;;;;;;4414269;28;656690;-66
2023/10/01 13:14:23;;;;;;;19.83;3.20;;;16.20;99.90;;;;;;4408721;28;656871;-66
2023/10/01 13:17:19;;;;;;;15.87;3.27;;;16.50;99.90;;;;;;4407150;28;657148;-66
2023/10/01 13:20:19;;;;;;;6.47;1.77;;;16.70;99.90;;;;;;4438298;28;656206;-66
2023/10/01 13:23:07;;;;;;;6.77;3.03;;;16.80;99.90;;;;;;4440112;28;655637;-66
2023/10/01 13:26:06;;;;;;;12.20;2.88;;;16.40;99.90;;;;;;4426916;28;656037;-67
2023/10/01 13:28:56;;;;;;;11.00;2.77;;;16.40;99.90;;;;;;4413946;28;656630;-67
2023/10/01 13:31:44;;;;;;;8.57;2.73;;;17.40;99.90;;;;;;4444048;28;657507;-67
2023/10/01 13:34:48;;;;;;;13.57;2.83;;;18.20;99.90;;;;;;4458983;28;655081;-67
2023/10/01 13:37:45;;;;;;;8.57;2.80;;;18.40;99.90;;;;;;4390634;28;657553;-66
2023/10/01 13:40:42;;;;;;;10.17;2.83;;;18.20;99.90;;;;;;4449655;28;655800;-68
2023/10/01 14:11:26;;;;;;;11.13;2.53;;;17.90;99.90;;;;;;4399594;28;656122;-67
2023/10/01 14:14:16;;;;;;;10.40;2.87;;;17.30;99.90;;;;;;4423266;28;656281;-67
2023/10/01 14:17:13;;;;;;;13.90;2.90;;;17.00;99.90;;;;;;4430819;28;657211;-67
2023/10/01 14:20:08;;;;;;;14.83;2.90;;;17.00;99.90;;;;;;4425835;28;656980;-66
2023/10/01 14:23:00;;;;;;;11.80;2.97;;;16.70;99.90;;;;;;4413701;28;656926;-67
2023/10/01 14:25:53;;;;;;;9.68;2.35;;;16.70;99.90;;;;;;4428736;28;656686;-68
2023/10/01 14:28:45;;;;;;;11.67;2.77;;;16.60;99.90;;;;;;4417341;28;656277;-68
2023/10/01 14:31:49;;;;;;;8.83;2.43;;;16.60;99.90;;;;;;4431760;28;657106;-66
2023/10/01 14:34:36;;;;;;;10.63;2.63;;;16.70;99.90;;;;;;4441090;28;655252;-68
2023/10/01 14:37:24;;;;;;;12.60;2.80;;;16.40;99.90;;;;;;4420087;28;657501;-67
2023/10/01 14:40:15;;;;;;;8.37;2.40;;;16.80;99.90;;;;;;4449084;28;656944;-66
2023/10/01 14:43:03;;;;;;;9.53;2.80;;;17.00;99.90;;;;;;4423124;28;655916;-68
2023/10/01 14:45:51;;;;;;;9.93;2.60;;;17.00;99.90;;;;;;4445204;28;656798;-67
2023/10/01 14:48:39;;;;;;;12.33;2.47;;;17.40;99.90;;;;;;4433282;28;655903;-67
2023/10/01 14:51:26;;;;;;;9.43;2.33;;;17.90;99.90;;;;;;4453133;28;656353;-66
2023/10/01 14:54:17;;;;;;;7.53;2.40;;;17.90;99.90;;;;;;4439079;28;655520;-66
2023/10/01 14:57:07;;;;;;;11.67;2.80;;;17.60;99.90;;;;;;4429805;28;655307;-67
2023/10/01 14:59:56;;;;;;;12.37;2.93;;;17.50;99.90;;;;;;4419179;28;657816;-66
2023/10/01 15:02:43;;;;;;;9.10;2.87;;;17.90;99.90;;;;;;4427827;28;656776;-68
2023/10/01 15:05:30;;;;;;;11.80;2.60;;;18.00;99.90;;;;;;4447728;28;656114;-66
2023/10/01 15:08:20;;;;;;;8.67;2.57;;;17.40;99.90;;;;;;4443902;28;657304;-67
2023/10/01 15:11:14;;;;;;;11.40;2.50;;;17.50;99.90;;;;;;4456189;28;655420;-68
2023/10/01 15:14:11;;;;;;;7.67;2.63;;;18.00;99.90;;;;;;4416986;28;656888;-66
2023/10/01 15:16:59;;;;;;;7.40;2.57;;;18.60;99.90;;;;;;4435091;28;657209;-66
2023/10/01 15:19:49;;;;;;;7.87;2.40;;;18.70;99.90;;;;;;4441202;28;656817;-66